createdAt,value
2023-01-18T00:01:19.931Z,98762.41
2023-01-18T00:03:46.881Z,98769.75
2023-01-18T00:06:13.756Z,98775.84
2023-01-18T00:08:42.308Z,98779.16
2023-01-18T00:11:15.472Z,98783.84
2023-01-18T00:13:42.426Z,98779.69
2023-01-18T00:16:13.980Z,98776.22
2023-01-18T00:18:40.690Z,98777.19
2023-01-18T00:21:10.082Z,98773.47
2023-01-18T00:23:37.118Z,98773.19
2023-01-18T00:26:09.680Z,98747.44
2023-01-18T00:28:36.886Z,98765.16
2023-01-18T00:31:13.100Z,98760.16
2023-01-18T00:33:42.680Z,98773.88
2023-01-18T00:36:09.146Z,98780.94
2023-01-18T00:38:35.562Z,98758.78
2023-01-18T00:41:02.269Z,98770.81
2023-01-18T00:43:40.969Z,98780.34
2023-01-18T00:46:19.346Z,98783.69
2023-01-18T00:48:46.064Z,98778.56
2023-01-18T00:51:15.933Z,98781.31
2023-01-18T00:53:46.357Z,98781.75
2023-01-18T00:56:16.111Z,98779.38
2023-01-18T00:58:42.913Z,98791.56
2023-01-18T01:01:10.583Z,98785.22
2023-01-18T01:03:56.895Z,98791.56
2023-01-18T01:06:46.519Z,98797.53
2023-01-18T01:09:23.638Z,98803.34
2023-01-18T01:12:09.561Z,98786.03
2023-01-18T01:15:04.665Z,98799.19
2023-01-18T01:17:51.169Z,98791.31
2023-01-18T01:20:36.514Z,98789.66
2023-01-18T01:23:36.390Z,98802.53
2023-01-18T01:26:08.008Z,98800.84
2023-01-18T01:28:36.374Z,98807.59
2023-01-18T01:31:05.019Z,98813.56
2023-01-18T01:33:32.748Z,98804.00
2023-01-18T01:36:01.553Z,98812.75
2023-01-18T01:38:28.773Z,98807.22
2023-01-18T01:40:56.651Z,98824.38
2023-01-18T01:43:41.740Z,98812.47
2023-01-18T01:46:23.532Z,98813.88
2023-01-18T01:48:56.903Z,98825.59
2023-01-18T01:51:23.734Z,98813.94
2023-01-18T01:53:51.516Z,98813.25
2023-01-18T01:56:20.765Z,98824.78
2023-01-18T01:58:51.504Z,98819.06
2023-01-18T02:01:18.115Z,98832.34
2023-01-18T02:03:45.350Z,98833.19
2023-01-18T02:06:31.084Z,98834.97
2023-01-18T02:09:02.701Z,98830.28
2023-01-18T02:11:29.572Z,98831.22
2023-01-18T02:14:01.208Z,98820.13
2023-01-18T02:16:39.844Z,98824.56
2023-01-18T02:19:24.771Z,98838.09
2023-01-18T02:22:00.704Z,98829.50
2023-01-18T02:24:45.021Z,98843.06
2023-01-18T02:27:32.011Z,98828.53
2023-01-18T02:30:14.527Z,98841.41
2023-01-18T02:32:44.415Z,98844.66
2023-01-18T02:35:15.803Z,98846.34
2023-01-18T02:38:05.537Z,98840.38
2023-01-18T02:40:53.207Z,98840.94
2023-01-18T02:43:39.691Z,98838.59
2023-01-18T02:46:26.856Z,98835.13
2023-01-18T02:48:53.570Z,98829.13
2023-01-18T02:51:20.066Z,98840.09
2023-01-18T02:53:48.421Z,98829.50
2023-01-18T02:56:20.750Z,98846.75
2023-01-18T02:58:51.619Z,98841.63
2023-01-18T03:01:27.291Z,98849.50
2023-01-18T03:04:17.799Z,98852.50
2023-01-18T03:06:49.003Z,98845.97
2023-01-18T03:09:18.537Z,98854.31
2023-01-18T03:12:16.028Z,98858.72
2023-01-18T03:15:04.964Z,98848.94
2023-01-18T03:17:41.541Z,98855.84
2023-01-18T03:20:14.916Z,98855.84
2023-01-18T03:23:15.184Z,98857.50
2023-01-18T03:25:45.362Z,98861.81
2023-01-18T03:28:52.974Z,98865.78
2023-01-18T03:31:47.137Z,98860.66
2023-01-18T03:34:25.980Z,98858.72
2023-01-18T03:36:56.200Z,98863.16
2023-01-18T03:39:24.999Z,98863.47
2023-01-18T03:42:05.435Z,98863.28
2023-01-18T03:44:41.049Z,98865.91
2023-01-18T03:47:08.086Z,98846.31
2023-01-18T03:49:35.222Z,98872.25
2023-01-18T03:52:16.940Z,98874.75
2023-01-18T03:55:21.728Z,98880.44
2023-01-18T03:57:54.740Z,98877.00
2023-01-18T04:00:21.419Z,98847.28
2023-01-18T04:02:49.323Z,98868.28
2023-01-18T04:05:16.915Z,98864.97
2023-01-18T04:07:43.344Z,98866.53
2023-01-18T04:10:10.687Z,98855.88
2023-01-18T04:12:37.217Z,98863.75
2023-01-18T04:15:04.398Z,98860.44
2023-01-18T04:17:30.907Z,98874.03
2023-01-18T04:19:57.424Z,98869.97
2023-01-18T04:22:24.232Z,98880.09
2023-01-18T04:24:50.733Z,98884.41
2023-01-18T04:27:17.419Z,98887.03
2023-01-18T04:29:43.846Z,98872.88
2023-01-18T04:32:10.231Z,98888.25
2023-01-18T04:34:36.792Z,98884.19
2023-01-18T04:37:03.281Z,98894.47
2023-01-18T04:39:29.700Z,98883.25
2023-01-18T04:41:57.271Z,98885.31
2023-01-18T04:44:23.901Z,98894.16
2023-01-18T04:46:51.258Z,98885.00
2023-01-18T04:49:17.776Z,98893.97
2023-01-18T04:51:46.113Z,98908.88
2023-01-18T04:54:16.066Z,98904.72
2023-01-18T04:56:42.755Z,98902.22
2023-01-18T04:59:14.458Z,98896.97
2023-01-18T05:01:40.921Z,98899.88
2023-01-18T05:04:07.484Z,98904.28
2023-01-18T05:06:33.905Z,98908.13
2023-01-18T05:09:00.336Z,98901.88
2023-01-18T05:11:27.028Z,98916.25
2023-01-18T05:13:53.440Z,98913.75
2023-01-18T05:16:22.054Z,98913.03
2023-01-18T05:18:48.952Z,98919.25
2023-01-18T05:21:15.499Z,98930.75
2023-01-18T05:23:42.551Z,98929.44
2023-01-18T05:26:16.021Z,98929.09
2023-01-18T05:28:43.303Z,98942.22
2023-01-18T05:31:10.255Z,98946.78
2023-01-18T05:33:37.001Z,98947.41
2023-01-18T05:36:03.805Z,98961.75
2023-01-18T05:38:30.367Z,98951.16
2023-01-18T05:40:57.391Z,98958.19
2023-01-18T05:43:26.594Z,98956.91
2023-01-18T05:45:53.070Z,98929.91
2023-01-18T05:48:20.432Z,98961.94
2023-01-18T05:50:48.452Z,98968.25
2023-01-18T05:53:17.531Z,98979.00
2023-01-18T05:55:44.642Z,98957.22
2023-01-18T05:58:11.685Z,98967.47
2023-01-18T06:00:38.088Z,98978.41
2023-01-18T06:03:04.457Z,98986.41
2023-01-18T06:05:30.999Z,98976.88
2023-01-18T06:07:57.513Z,98985.59
2023-01-18T06:10:23.957Z,98986.41
2023-01-18T06:12:50.545Z,98972.03
2023-01-18T06:15:19.632Z,99001.44
2023-01-18T06:17:49.084Z,99000.50
2023-01-18T06:20:16.004Z,99001.44
2023-01-18T06:22:42.515Z,99004.91
2023-01-18T06:25:09.998Z,98976.91
2023-01-18T06:27:37.756Z,99019.09
2023-01-18T06:30:06.237Z,99011.47
2023-01-18T06:32:33.296Z,99010.50
2023-01-18T06:34:59.774Z,99006.81
2023-01-18T06:37:26.437Z,99011.34
2023-01-18T06:39:52.887Z,99022.31
2023-01-18T06:42:19.272Z,99030.88
2023-01-18T06:44:45.753Z,99023.75
2023-01-18T06:47:15.479Z,99040.66
2023-01-18T06:49:41.869Z,99037.59
2023-01-18T06:52:08.676Z,99031.72
2023-01-18T06:54:35.856Z,99050.44
2023-01-18T06:57:02.405Z,99047.13
2023-01-18T06:59:28.805Z,99054.72
2023-01-18T07:01:55.333Z,99052.09
2023-01-18T07:04:22.029Z,99056.50
2023-01-18T07:06:48.653Z,99057.47
2023-01-18T07:09:15.058Z,99056.88
2023-01-18T07:11:43.280Z,99059.25
2023-01-18T07:14:13.210Z,99065.59
2023-01-18T07:16:39.783Z,99079.53
2023-01-18T07:19:06.241Z,99078.00
2023-01-18T07:21:32.747Z,99065.56
2023-01-18T07:23:59.745Z,99085.13
2023-01-18T07:26:26.432Z,99086.09
2023-01-18T07:28:54.711Z,99084.06
2023-01-18T07:31:21.310Z,99088.47
2023-01-18T07:33:47.714Z,99101.72
2023-01-18T07:36:14.437Z,99102.66
2023-01-18T07:38:41.206Z,99102.88
2023-01-18T07:41:10.671Z,99108.25
2023-01-18T07:43:37.709Z,99114.31
2023-01-18T07:46:05.311Z,99116.22
2023-01-18T07:48:32.330Z,99128.63
2023-01-18T07:51:03.546Z,99126.13
2023-01-18T07:53:31.507Z,99122.91
2023-01-18T07:56:02.343Z,99127.09
2023-01-18T07:58:29.279Z,99134.09
2023-01-18T08:01:01.664Z,99136.63
2023-01-18T08:03:28.075Z,99139.94
2023-01-18T08:05:54.579Z,99145.91
2023-01-18T08:08:20.975Z,99137.56
2023-01-18T08:10:47.344Z,99140.78
2023-01-18T08:13:13.739Z,99143.06
2023-01-18T08:15:40.639Z,99123.00
2023-01-18T08:18:08.544Z,99142.59
2023-01-18T08:20:35.239Z,99146.63
2023-01-18T08:23:02.520Z,99154.03
2023-01-18T08:25:30.175Z,99160.63
2023-01-18T08:28:00.445Z,99149.75
2023-01-18T08:30:37.539Z,99157.28
2023-01-18T08:33:05.603Z,99162.06
2023-01-18T08:35:34.805Z,99164.19
2023-01-18T08:38:02.263Z,99169.00
2023-01-18T08:40:29.894Z,99160.75
2023-01-18T08:42:58.708Z,99168.97
2023-01-18T08:45:26.185Z,99166.34
2023-01-18T08:48:18.906Z,99170.28
2023-01-18T08:50:46.369Z,99171.00
2023-01-18T08:53:13.328Z,99148.91
2023-01-18T08:55:40.493Z,99189.13
2023-01-18T08:58:07.307Z,99168.84
2023-01-18T09:00:33.766Z,99165.97
2023-01-18T09:03:02.956Z,99196.03
2023-01-18T09:05:29.999Z,99197.47
2023-01-18T09:07:57.804Z,99205.56
2023-01-18T09:10:24.321Z,99213.19
2023-01-18T09:12:55.239Z,99201.84
2023-01-18T09:15:21.683Z,99179.06
2023-01-18T09:17:48.111Z,99203.53
2023-01-18T09:20:16.537Z,99231.19
2023-01-18T09:22:45.444Z,99210.69
2023-01-18T09:25:11.975Z,99229.66
2023-01-18T09:27:38.371Z,99223.56
2023-01-18T09:30:06.746Z,99244.31
2023-01-18T09:32:33.172Z,99240.19
2023-01-18T09:34:59.592Z,99256.22
2023-01-18T09:37:26.144Z,99250.69
2023-01-18T09:39:52.844Z,99251.84
2023-01-18T09:42:25.244Z,99240.38
2023-01-18T09:44:56.812Z,99251.94
2023-01-18T09:47:31.211Z,99260.63
2023-01-18T09:50:00.159Z,99264.88
2023-01-18T09:52:32.406Z,99259.09
2023-01-18T09:55:17.068Z,99256.78
2023-01-18T09:58:02.614Z,99259.69
2023-01-18T10:00:32.142Z,99261.53
2023-01-18T10:03:02.664Z,99262.28
2023-01-18T10:05:47.351Z,99245.22
2023-01-18T10:08:18.280Z,99265.59
2023-01-18T10:11:09.987Z,99271.47
2023-01-18T10:13:44.929Z,99275.56
2023-01-18T10:16:14.800Z,99279.63
2023-01-18T10:18:51.531Z,99274.41
2023-01-18T10:21:47.448Z,99272.66
2023-01-18T10:24:22.063Z,99269.75
2023-01-18T10:26:52.867Z,99271.97
2023-01-18T10:29:31.140Z,99255.47
2023-01-18T10:32:03.317Z,99265.28
2023-01-18T10:34:35.441Z,99271.28
2023-01-18T10:37:37.421Z,99247.38
2023-01-18T10:40:07.646Z,99263.59
2023-01-18T10:42:33.971Z,99275.47
2023-01-18T10:45:00.341Z,99279.09
2023-01-18T10:47:26.887Z,99277.59
2023-01-18T10:49:59.502Z,99283.97
2023-01-18T10:52:29.990Z,99276.03
2023-01-18T10:54:58.217Z,99281.53
2023-01-18T10:57:29.781Z,99277.66
2023-01-18T10:59:57.339Z,99283.13
2023-01-18T11:02:30.428Z,99261.84
2023-01-18T11:05:15.485Z,99282.94
2023-01-18T11:07:42.475Z,99275.84
2023-01-18T11:10:27.478Z,99278.72
2023-01-18T11:12:54.263Z,99282.59
2023-01-18T11:15:26.957Z,99265.81
2023-01-18T11:18:00.658Z,99287.75
2023-01-18T11:20:50.300Z,99285.88
2023-01-18T11:23:21.408Z,99279.75
2023-01-18T11:26:01.156Z,99287.53
2023-01-18T11:28:39.310Z,99288.25
2023-01-18T11:31:16.140Z,99288.78
2023-01-18T11:33:54.820Z,99270.28
2023-01-18T11:36:43.246Z,99262.81
2023-01-18T11:39:31.586Z,99287.13
2023-01-18T11:42:35.063Z,99281.13
2023-01-18T11:45:12.367Z,99281.97
2023-01-18T11:47:59.663Z,99296.44
2023-01-18T11:50:44.815Z,99265.00
2023-01-18T11:53:23.668Z,99285.72
2023-01-18T11:56:05.731Z,99278.28
2023-01-18T11:58:34.115Z,99271.25
2023-01-18T12:01:21.773Z,99280.22
2023-01-18T12:04:17.447Z,99282.34
2023-01-18T12:07:25.476Z,99289.94
2023-01-18T12:09:55.801Z,99281.88
2023-01-18T12:12:37.189Z,99289.81
2023-01-18T12:15:25.630Z,99280.81
2023-01-18T12:18:13.452Z,99286.50
2023-01-18T12:20:43.417Z,99291.34
2023-01-18T12:23:35.214Z,99286.41
2023-01-18T12:26:12.504Z,99286.97
2023-01-18T12:29:01.076Z,99284.56
2023-01-18T12:32:00.137Z,99292.94
2023-01-18T12:34:41.460Z,99282.09
2023-01-18T12:37:19.842Z,99281.84
2023-01-18T12:40:05.895Z,99281.38
2023-01-18T12:42:56.042Z,99290.28
2023-01-18T12:45:31.613Z,99289.00
2023-01-18T12:48:17.050Z,99294.50
2023-01-18T12:50:48.751Z,99280.47
2023-01-18T12:53:23.559Z,99292.75
2023-01-18T12:55:53.747Z,99283.31
2023-01-18T12:58:22.664Z,99293.41
2023-01-18T13:00:54.546Z,99280.03
2023-01-18T13:03:25.992Z,99297.50
2023-01-18T13:05:57.902Z,99288.78
2023-01-18T13:08:27.146Z,99290.94
2023-01-18T13:11:02.058Z,99278.31
2023-01-18T13:13:30.985Z,99279.47
2023-01-18T13:16:19.222Z,99293.81
2023-01-18T13:18:51.822Z,99293.50
2023-01-18T13:21:36.520Z,99298.69
2023-01-18T13:24:14.760Z,99286.38
2023-01-18T13:26:41.894Z,99311.28
2023-01-18T13:29:29.707Z,99305.69
2023-01-18T13:31:57.152Z,99321.41
2023-01-18T13:34:25.728Z,99312.00
2023-01-18T13:36:55.854Z,99308.03
2023-01-18T13:39:31.642Z,99306.69
2023-01-18T13:42:03.779Z,99316.00
2023-01-18T13:44:39.381Z,99313.03
2023-01-18T13:47:46.076Z,99314.72
2023-01-18T13:50:39.797Z,99318.03
2023-01-18T13:53:15.309Z,99325.69
2023-01-18T13:55:46.245Z,99323.19
2023-01-18T13:58:28.395Z,99318.81
2023-01-18T14:00:58.495Z,99334.25
2023-01-18T14:03:33.113Z,99335.94
2023-01-18T14:06:09.077Z,99336.72
2023-01-18T14:08:39.765Z,99342.81
2023-01-18T14:11:09.361Z,99341.47
2023-01-18T14:13:44.706Z,99354.69
2023-01-18T14:16:36.174Z,99342.38
2023-01-18T14:19:21.619Z,99337.50
2023-01-18T14:22:06.237Z,99348.19
2023-01-18T14:25:01.339Z,99351.75
2023-01-18T14:27:33.128Z,99351.13
2023-01-18T14:30:23.295Z,99357.16
2023-01-18T14:33:19.419Z,99365.06
2023-01-18T14:35:54.429Z,99371.13
2023-01-18T14:38:21.324Z,99355.84
2023-01-18T14:40:51.239Z,99365.06
2023-01-18T14:43:29.541Z,99374.22
2023-01-18T14:46:10.036Z,99365.81
2023-01-18T14:48:51.758Z,99371.44
2023-01-18T14:51:26.500Z,99375.25
2023-01-18T14:53:58.046Z,99371.34
2023-01-18T14:56:30.138Z,99377.75
2023-01-18T14:59:03.024Z,99380.72
2023-01-18T15:01:36.952Z,99389.94
2023-01-18T15:04:07.239Z,99392.88
2023-01-18T15:06:47.505Z,99393.31
2023-01-18T15:09:13.995Z,99395.66
2023-01-18T15:11:42.591Z,99397.19
2023-01-18T15:14:25.534Z,99392.47
2023-01-18T15:16:55.011Z,99394.00
2023-01-18T15:19:36.065Z,99389.53
2023-01-18T15:22:04.343Z,99401.75
2023-01-18T15:24:38.911Z,99395.19
2023-01-18T15:27:05.585Z,99408.78
2023-01-18T15:29:35.903Z,99406.97
2023-01-18T15:32:23.675Z,99409.03
2023-01-18T15:34:52.166Z,99401.72
2023-01-18T15:37:38.927Z,99408.09
2023-01-18T15:40:14.660Z,99419.31
2023-01-18T15:42:52.095Z,99394.78
2023-01-18T15:45:18.484Z,99427.59
2023-01-18T15:48:22.720Z,99429.66
2023-01-18T15:50:51.859Z,99412.63
2023-01-18T15:53:35.788Z,99428.31
2023-01-18T15:56:06.162Z,99423.50
2023-01-18T15:58:38.904Z,99435.84
2023-01-18T16:01:16.328Z,99417.25
2023-01-18T16:03:46.269Z,99438.78
2023-01-18T16:06:13.845Z,99447.91
2023-01-18T16:08:59.790Z,99438.84
2023-01-18T16:11:30.798Z,99445.56
2023-01-18T16:14:02.902Z,99440.81
2023-01-18T16:16:29.835Z,99443.94
2023-01-18T16:19:01.086Z,99447.09
2023-01-18T16:21:40.510Z,99435.38
2023-01-18T16:24:18.499Z,99442.69
2023-01-18T16:26:45.681Z,99439.72
2023-01-18T16:29:13.277Z,99447.84
2023-01-18T16:31:43.079Z,99454.81
2023-01-18T16:34:20.144Z,99447.75
2023-01-18T16:36:47.654Z,99447.97
2023-01-18T16:39:14.267Z,99453.38
2023-01-18T16:41:42.920Z,99454.91
2023-01-18T16:44:11.282Z,99455.88
2023-01-18T16:46:38.019Z,99457.66
2023-01-18T16:49:09.611Z,99456.13
2023-01-18T16:51:36.099Z,99457.06
2023-01-18T16:54:02.818Z,99456.47
2023-01-18T16:56:29.245Z,99466.88
2023-01-18T16:58:55.681Z,99450.06
2023-01-18T17:01:22.157Z,99467.72
2023-01-18T17:03:50.208Z,99466.78
2023-01-18T17:06:20.676Z,99474.06
2023-01-18T17:08:49.114Z,99474.06
2023-01-18T17:11:15.591Z,99475.63
2023-01-18T17:13:42.406Z,99479.09
2023-01-18T17:16:19.314Z,99476.47
2023-01-18T17:18:46.409Z,99459.84
2023-01-18T17:21:13.052Z,99475.06
2023-01-18T17:23:39.847Z,99477.69
2023-01-18T17:26:08.046Z,99479.47
2023-01-18T17:28:34.565Z,99483.19
2023-01-18T17:31:01.366Z,99477.69
2023-01-18T17:33:28.307Z,99474.81
2023-01-18T17:35:55.018Z,99463.34
2023-01-18T17:38:24.906Z,99478.50
2023-01-18T17:40:53.120Z,99493.59
2023-01-18T17:43:32.171Z,99488.81
2023-01-18T17:46:02.565Z,99489.53
2023-01-18T17:48:29.196Z,99499.34
2023-01-18T17:50:55.787Z,99494.19
2023-01-18T17:53:22.191Z,99473.28
2023-01-18T17:55:48.589Z,99481.53
2023-01-18T17:58:14.971Z,99491.81
2023-01-18T18:00:41.457Z,99494.56
2023-01-18T18:03:09.142Z,99492.03
2023-01-18T18:05:35.820Z,99486.78
2023-01-18T18:08:02.683Z,99490.97
2023-01-18T18:10:29.176Z,99472.69
2023-01-18T18:12:55.555Z,99482.47
2023-01-18T18:15:23.371Z,99488.56
2023-01-18T18:17:49.779Z,99484.25
2023-01-18T18:20:16.948Z,99461.22
2023-01-18T18:22:43.548Z,99498.97
2023-01-18T18:25:10.154Z,99497.19
2023-01-18T18:27:45.303Z,99510.09
2023-01-18T18:30:13.081Z,99506.41
2023-01-18T18:32:39.843Z,99510.84
2023-01-18T18:35:23.234Z,99503.41
2023-01-18T18:37:50.857Z,99516.53
2023-01-18T18:40:18.221Z,99515.13
2023-01-18T18:42:52.729Z,99525.28
2023-01-18T18:45:24.459Z,99522.06
2023-01-18T18:47:51.839Z,99526.59
2023-01-18T18:50:18.789Z,99532.47
2023-01-18T18:52:45.267Z,99534.16
2023-01-18T18:55:11.697Z,99533.91
2023-01-18T18:57:38.101Z,99526.59
2023-01-18T19:00:08.530Z,99538.91
2023-01-18T19:02:35.340Z,99535.59
2023-01-18T19:05:02.208Z,99535.81
2023-01-18T19:07:28.760Z,99546.34
2023-01-18T19:09:55.620Z,99535.44
2023-01-18T19:12:22.115Z,99533.78
2023-01-18T19:14:48.885Z,99538.53
2023-01-18T19:17:25.176Z,99535.91
2023-01-18T19:19:56.435Z,99530.91
2023-01-18T19:22:23.013Z,99482.69
2023-01-18T19:24:49.412Z,99530.75
2023-01-18T19:27:16.460Z,99531.59
2023-01-18T19:29:43.270Z,99514.38
2023-01-18T19:32:10.006Z,99531.84
2023-01-18T19:34:38.399Z,99523.09
2023-01-18T19:37:05.277Z,99501.34
2023-01-18T19:39:34.520Z,99520.09
2023-01-18T19:42:02.292Z,99520.34
2023-01-18T19:44:28.986Z,99523.94
2023-01-18T19:46:56.862Z,99510.19
2023-01-18T19:49:25.474Z,99525.00
2023-01-18T19:51:52.784Z,99531.59
2023-01-18T19:54:19.191Z,99524.91
2023-01-18T19:56:45.657Z,99513.88
2023-01-18T19:59:14.359Z,99523.22
2023-01-18T20:01:40.869Z,99527.28
2023-01-18T20:04:08.041Z,99528.97
2023-01-18T20:06:35.099Z,99518.66
2023-01-18T20:09:01.866Z,99527.53
2023-01-18T20:11:29.267Z,99525.63
2023-01-18T20:13:56.263Z,99516.50
2023-01-18T20:16:23.188Z,99521.19
2023-01-18T20:18:49.744Z,99511.38
2023-01-18T20:21:18.355Z,99519.72
2023-01-18T20:23:45.534Z,99519.84
2023-01-18T20:26:15.385Z,99516.25
2023-01-18T20:28:43.642Z,99523.31
2023-01-18T20:31:10.204Z,99520.34
2023-01-18T20:33:38.282Z,99516.38
2023-01-18T20:36:06.820Z,99512.66
2023-01-18T20:38:34.101Z,99516.97
2023-01-18T20:41:01.235Z,99516.00
2023-01-18T20:43:28.041Z,99513.00
2023-01-18T20:46:04.551Z,99518.88
2023-01-18T20:48:32.886Z,99511.34
2023-01-18T20:51:00.348Z,99503.56
2023-01-18T20:53:28.160Z,99504.38
2023-01-18T20:55:55.227Z,99514.69
2023-01-18T20:58:22.763Z,99512.75
2023-01-18T21:00:50.090Z,99517.91
2023-01-18T21:03:19.543Z,99493.50
2023-01-18T21:05:46.898Z,99526.78
2023-01-18T21:08:14.452Z,99527.59
2023-01-18T21:10:41.817Z,99528.06
2023-01-18T21:13:09.935Z,99506.41
2023-01-18T21:15:37.690Z,99517.41
2023-01-18T21:18:05.934Z,99521.34
2023-01-18T21:20:32.741Z,99488.94
2023-01-18T21:23:01.161Z,99509.59
2023-01-18T21:25:29.623Z,99486.50
2023-01-18T21:27:58.013Z,99507.28
2023-01-18T21:30:24.940Z,99472.03
2023-01-18T21:32:51.342Z,99508.06
2023-01-18T21:35:18.780Z,99516.69
2023-01-18T21:37:45.211Z,99498.88
2023-01-18T21:40:12.014Z,99520.88
2023-01-18T21:42:56.792Z,99514.19
2023-01-18T21:45:41.699Z,99525.91
2023-01-18T21:48:10.967Z,99492.78
2023-01-18T21:50:59.197Z,99514.78
2023-01-18T21:53:43.980Z,99498.72
2023-01-18T21:56:10.485Z,99492.31
2023-01-18T21:58:55.001Z,99514.84
2023-01-18T22:01:26.996Z,99515.66
2023-01-18T22:04:13.215Z,99522.06
2023-01-18T22:06:40.236Z,99507.31
2023-01-18T22:09:07.924Z,99501.47
2023-01-18T22:11:34.373Z,99524.41
2023-01-18T22:14:02.702Z,99511.50
2023-01-18T22:16:30.703Z,99523.78
2023-01-18T22:18:58.595Z,99512.59
2023-01-18T22:21:25.751Z,99522.66
2023-01-18T22:23:53.036Z,99496.84
2023-01-18T22:26:20.633Z,99525.03
2023-01-18T22:28:47.318Z,99517.38
2023-01-18T22:31:14.500Z,99527.59
2023-01-18T22:33:41.703Z,99508.63
2023-01-18T22:36:08.588Z,99536.22
2023-01-18T22:38:35.173Z,99531.56
2023-01-18T22:41:03.376Z,99535.84
2023-01-18T22:43:36.314Z,99527.13
2023-01-18T22:46:06.344Z,99512.59
2023-01-18T22:48:37.304Z,99523.66
2023-01-18T22:51:05.307Z,99511.44
2023-01-18T22:53:32.661Z,99525.47
2023-01-18T22:56:03.611Z,99522.31
2023-01-18T22:58:30.577Z,99485.41
2023-01-18T23:00:57.290Z,99530.38
2023-01-18T23:03:23.764Z,99532.16
2023-01-18T23:05:57.992Z,99516.25
2023-01-18T23:08:42.454Z,99524.69
2023-01-18T23:11:15.290Z,99531.06
2023-01-18T23:13:43.276Z,99530.34
2023-01-18T23:16:32.019Z,99528.78
2023-01-18T23:18:59.566Z,99530.81
2023-01-18T23:21:25.946Z,99535.34
2023-01-18T23:23:52.379Z,99527.69
2023-01-18T23:26:18.802Z,99521.72
2023-01-18T23:28:45.325Z,99509.75
2023-01-18T23:31:14.288Z,99521.47
2023-01-18T23:33:40.826Z,99521.22
2023-01-18T23:36:08.611Z,99526.22
2023-01-18T23:38:53.520Z,99513.88
2023-01-18T23:41:39.105Z,99487.38
2023-01-18T23:44:24.376Z,99527.53
2023-01-18T23:47:09.582Z,99524.63
2023-01-18T23:49:54.816Z,99525.13
2023-01-18T23:52:39.827Z,99524.94
2023-01-18T23:55:06.830Z,99537.03
2023-01-18T23:57:33.667Z,99540.50
